createdAt,value
2018-10-05T00:00:34.323Z,4.10
2018-10-05T00:02:43.212Z,3.67
2018-10-05T00:04:49.458Z,3.93
2018-10-05T00:06:53.912Z,4.20
2018-10-05T00:08:58.363Z,4.27
2018-10-05T00:11:03.132Z,3.92
2018-10-05T00:13:07.835Z,3.90
2018-10-05T00:15:12.264Z,4.37
2018-10-05T00:17:16.731Z,4.03
2018-10-05T00:19:21.232Z,3.67
2018-10-05T00:21:27.948Z,4.00
2018-10-05T00:23:32.532Z,3.90
2018-10-05T00:25:37.087Z,3.63
2018-10-05T00:27:41.621Z,3.70
2018-10-05T00:29:46.046Z,3.33
2018-10-05T00:31:50.559Z,4.10
2018-10-05T00:33:55.076Z,3.53
2018-10-05T00:35:59.528Z,3.75
2018-10-05T00:38:04.043Z,3.55
2018-10-05T00:40:08.588Z,3.40
2018-10-05T00:42:13.051Z,3.70
2018-10-05T00:44:17.541Z,3.62
2018-10-05T00:46:22.046Z,3.60
2018-10-05T00:48:26.524Z,4.20
2018-10-05T00:50:31.054Z,3.50
2018-10-05T00:52:35.507Z,3.77
2018-10-05T00:54:40.044Z,3.83
2018-10-05T00:56:44.506Z,3.37
2018-10-05T00:58:50.082Z,3.40
2018-10-05T01:00:54.562Z,3.10
2018-10-05T01:02:59.042Z,3.37
2018-10-05T01:05:03.522Z,3.27
2018-10-05T01:07:08.059Z,3.50
2018-10-05T01:09:12.485Z,3.00
2018-10-05T01:11:16.962Z,3.63
2018-10-05T01:13:21.591Z,3.40
2018-10-05T01:15:26.106Z,3.35
2018-10-05T01:17:30.612Z,3.03
2018-10-05T01:19:36.988Z,2.67
2018-10-05T01:21:41.467Z,2.65
2018-10-05T01:23:45.935Z,2.97
2018-10-05T01:25:50.395Z,3.10
2018-10-05T01:27:54.850Z,3.13
2018-10-05T01:29:59.426Z,3.20
2018-10-05T01:32:03.924Z,3.17
2018-10-05T01:34:08.806Z,2.77
2018-10-05T01:36:13.438Z,3.37
2018-10-05T01:38:17.971Z,2.42
2018-10-05T01:40:22.527Z,2.80
2018-10-05T01:42:26.987Z,2.67
2018-10-05T01:44:31.675Z,3.27
2018-10-05T01:46:36.133Z,2.83
2018-10-05T01:48:40.669Z,3.43
2018-10-05T01:50:45.214Z,3.30
2018-10-05T01:52:50.703Z,3.05
2018-10-05T01:54:55.161Z,2.80
2018-10-05T01:56:59.585Z,3.27
2018-10-05T01:59:04.423Z,2.72
2018-10-05T02:01:11.884Z,2.73
2018-10-05T02:03:16.406Z,3.20
2018-10-05T02:05:20.867Z,2.60
2018-10-05T02:07:25.335Z,2.63
2018-10-05T02:09:29.775Z,2.67
2018-10-05T02:11:34.733Z,2.50
2018-10-05T02:13:39.255Z,2.30
2018-10-05T02:15:43.716Z,2.80
2018-10-05T02:17:48.361Z,3.07
2018-10-05T02:19:52.846Z,2.40
2018-10-05T02:21:57.351Z,2.20
2018-10-05T02:24:01.880Z,2.50
2018-10-05T02:26:06.676Z,2.30
2018-10-05T02:28:11.170Z,2.27
2018-10-05T02:30:15.682Z,2.30
2018-10-05T02:32:20.199Z,2.70
2018-10-05T02:34:24.783Z,2.23
2018-10-05T02:36:29.203Z,2.80
2018-10-05T02:38:34.827Z,2.63
2018-10-05T02:40:39.310Z,2.40
2018-10-05T02:42:43.875Z,2.30
2018-10-05T02:44:48.320Z,2.55
2018-10-05T02:46:52.849Z,2.17
2018-10-05T02:48:57.339Z,2.10
2018-10-05T02:51:01.798Z,1.98
2018-10-05T02:53:06.776Z,2.20
2018-10-05T02:55:11.547Z,2.63
2018-10-05T02:57:16.038Z,2.63
2018-10-05T02:59:20.557Z,2.07
2018-10-05T03:01:42.709Z,2.00
2018-10-05T03:03:47.214Z,2.20
2018-10-05T03:05:51.735Z,2.20
2018-10-05T03:07:57.183Z,2.10
2018-10-05T03:10:02.548Z,2.00
2018-10-05T03:12:07.072Z,1.92
2018-10-05T03:14:11.571Z,2.03
2018-10-05T03:16:17.146Z,1.73
2018-10-05T03:18:21.611Z,1.90
2018-10-05T03:20:26.151Z,2.07
2018-10-05T03:22:30.710Z,1.80
2018-10-05T03:24:35.595Z,1.92
2018-10-05T03:26:40.636Z,2.20
2018-10-05T03:28:45.926Z,2.20
2018-10-05T03:30:50.447Z,2.33
2018-10-05T03:32:54.902Z,2.30
2018-10-05T03:34:59.378Z,1.73
2018-10-05T03:37:03.858Z,2.05
2018-10-05T03:39:08.380Z,2.07
2018-10-05T03:41:12.887Z,2.07
2018-10-05T03:43:17.382Z,1.70
2018-10-05T03:45:22.147Z,1.55
2018-10-05T03:47:26.623Z,1.90
2018-10-05T03:49:31.154Z,1.80
2018-10-05T03:51:35.632Z,1.60
2018-10-05T03:53:40.084Z,2.03
2018-10-05T03:55:44.610Z,1.98
2018-10-05T03:57:49.084Z,1.80
2018-10-05T03:59:53.569Z,1.90
2018-10-05T04:01:58.006Z,2.00
2018-10-05T04:04:02.518Z,1.87
2018-10-05T04:06:07.264Z,2.00
2018-10-05T04:08:11.744Z,1.85
2018-10-05T04:10:17.398Z,1.97
2018-10-05T04:12:21.904Z,1.95
2018-10-05T04:14:26.419Z,1.67
2018-10-05T04:16:30.956Z,1.80
2018-10-05T04:18:35.467Z,1.75
2018-10-05T04:20:39.894Z,2.00
2018-10-05T04:22:44.342Z,1.80
2018-10-05T04:24:49.283Z,1.60
2018-10-05T04:26:53.791Z,1.63
2018-10-05T04:28:59.075Z,1.70
2018-10-05T04:31:03.527Z,1.77
2018-10-05T04:33:07.967Z,1.97
2018-10-05T04:35:12.520Z,1.90
2018-10-05T04:37:17.829Z,2.12
2018-10-05T04:39:22.331Z,1.93
2018-10-05T04:41:26.822Z,2.55
2018-10-05T04:43:31.279Z,2.37
2018-10-05T04:45:35.816Z,2.20
2018-10-05T04:47:40.271Z,2.30
2018-10-05T04:49:44.982Z,2.43
2018-10-05T04:51:49.309Z,2.10
2018-10-05T04:53:53.852Z,1.83
2018-10-05T04:55:58.388Z,2.10
2018-10-05T04:58:02.820Z,2.02
2018-10-05T05:00:07.883Z,1.60
2018-10-05T05:02:12.779Z,1.82
2018-10-05T05:04:17.963Z,1.90
2018-10-05T05:06:22.515Z,1.72
2018-10-05T05:08:27.274Z,1.80
2018-10-05T05:10:31.772Z,1.57
2018-10-05T05:12:36.234Z,1.63
2018-10-05T05:14:40.778Z,1.60
2018-10-05T05:16:45.304Z,1.90
2018-10-05T05:18:49.832Z,2.10
2018-10-05T05:20:54.263Z,1.72
2018-10-05T05:22:58.818Z,1.90
2018-10-05T05:25:03.292Z,1.92
2018-10-05T05:27:07.823Z,2.00
2018-10-05T05:29:12.307Z,2.00
2018-10-05T05:31:18.027Z,1.70
2018-10-05T05:33:22.515Z,1.80
2018-10-05T05:35:27.132Z,1.93
2018-10-05T05:37:31.635Z,2.10
2018-10-05T05:39:36.146Z,1.95
2018-10-05T05:41:40.667Z,2.10
2018-10-05T05:43:45.055Z,2.07
2018-10-05T05:45:49.595Z,1.98
2018-10-05T05:47:54.061Z,1.98
2018-10-05T05:49:58.579Z,1.80
2018-10-05T05:52:03.024Z,1.73
2018-10-05T05:54:07.680Z,2.10
2018-10-05T05:56:12.070Z,1.90
2018-10-05T05:58:16.714Z,2.60
2018-10-05T06:00:21.207Z,2.77
2018-10-05T06:02:25.771Z,2.72
2018-10-05T06:04:30.306Z,2.55
2018-10-05T06:06:34.843Z,2.47
2018-10-05T06:08:40.487Z,2.33
2018-10-05T06:10:45.028Z,2.65
2018-10-05T06:12:49.539Z,1.97
2018-10-05T06:14:53.969Z,2.20
2018-10-05T06:16:58.751Z,2.00
2018-10-05T06:19:03.261Z,2.53
2018-10-05T06:21:09.105Z,1.77
2018-10-05T06:23:13.591Z,2.50
2018-10-05T06:25:18.030Z,2.37
2018-10-05T06:27:22.595Z,2.37
2018-10-05T06:29:27.145Z,1.92
2018-10-05T06:31:31.676Z,2.00
2018-10-05T06:33:36.332Z,1.50
2018-10-05T06:35:40.844Z,1.97
2018-10-05T06:37:45.303Z,1.70
2018-10-05T06:39:49.807Z,2.00
2018-10-05T06:41:55.334Z,2.00
2018-10-05T06:44:00.776Z,1.90
2018-10-05T06:46:05.345Z,1.87
2018-10-05T06:48:09.851Z,1.45
2018-10-05T06:50:14.310Z,1.60
2018-10-05T06:52:18.815Z,1.60
2018-10-05T06:54:23.320Z,1.47
2018-10-05T06:56:27.835Z,1.90
2018-10-05T06:58:32.435Z,1.27
2018-10-05T07:00:36.937Z,1.70
2018-10-05T07:02:41.541Z,1.60
2018-10-05T07:04:45.963Z,1.67
2018-10-05T07:06:50.505Z,1.57
2018-10-05T07:08:54.976Z,1.43
2018-10-05T07:10:59.477Z,1.70
2018-10-05T07:13:04.110Z,1.60
2018-10-05T07:15:08.659Z,1.30
2018-10-05T07:17:13.199Z,1.50
2018-10-05T07:19:17.896Z,1.67
2018-10-05T07:21:22.422Z,1.50
2018-10-05T07:23:27.075Z,1.23
2018-10-05T07:25:31.596Z,1.17
2018-10-05T07:27:36.050Z,2.73
2018-10-05T07:29:40.635Z,2.10
2018-10-05T07:31:45.459Z,1.97
2018-10-05T07:33:49.946Z,1.90
2018-10-05T07:35:54.467Z,2.63
2018-10-05T07:37:58.950Z,1.65
2018-10-05T07:40:03.495Z,1.30
2018-10-05T07:42:07.982Z,1.50
2018-10-05T07:44:12.426Z,1.77
2018-10-05T07:46:16.928Z,1.37
2018-10-05T07:48:21.370Z,1.53
2018-10-05T07:50:25.838Z,1.47
2018-10-05T07:52:30.347Z,1.70
2018-10-05T07:54:34.847Z,1.30
2018-10-05T07:56:39.335Z,1.50
2018-10-05T07:58:43.826Z,1.35
2018-10-05T08:00:48.272Z,1.63
2018-10-05T08:02:52.782Z,1.60
2018-10-05T08:04:58.227Z,1.40
2018-10-05T08:07:02.699Z,1.80
2018-10-05T08:09:09.062Z,1.50
2018-10-05T08:11:13.596Z,1.62
2018-10-05T08:13:18.086Z,1.60
2018-10-05T08:15:22.631Z,1.83
2018-10-05T08:17:27.199Z,1.70
2018-10-05T08:19:32.858Z,2.47
2018-10-05T08:21:37.377Z,1.60
2018-10-05T08:23:45.238Z,1.77
2018-10-05T08:25:49.703Z,1.80
2018-10-05T08:27:54.268Z,1.60
2018-10-05T08:29:58.840Z,1.45
2018-10-05T08:32:03.408Z,1.70
2018-10-05T08:34:08.057Z,12.90
2018-10-05T08:36:12.474Z,6.63
2018-10-05T08:38:17.041Z,5.13
2018-10-05T08:40:21.751Z,4.27
2018-10-05T08:42:27.339Z,4.67
2018-10-05T08:44:31.834Z,7.80
2018-10-05T08:46:36.342Z,7.75
2018-10-05T08:48:40.852Z,3.27
2018-10-05T08:50:45.453Z,21.12
2018-10-05T08:52:50.064Z,7.37
2018-10-05T08:54:54.488Z,7.28
2018-10-05T08:56:58.999Z,8.53
2018-10-05T08:59:03.609Z,7.53
2018-10-05T09:01:09.735Z,5.00
2018-10-05T09:03:14.254Z,2.73
2018-10-05T09:05:18.886Z,2.60
2018-10-05T09:07:23.588Z,3.37
2018-10-05T09:09:29.385Z,3.30
2018-10-05T09:11:34.225Z,3.87
2018-10-05T09:13:39.046Z,2.27
2018-10-05T09:15:43.538Z,1.95
2018-10-05T09:17:48.132Z,3.52
2018-10-05T09:19:52.647Z,2.50
2018-10-05T09:21:57.521Z,2.40
2018-10-05T09:24:02.346Z,2.10
2018-10-05T09:26:06.998Z,2.02
2018-10-05T09:28:12.403Z,3.20
2018-10-05T09:30:17.135Z,2.20
2018-10-05T09:32:21.817Z,2.02
2018-10-05T09:34:26.376Z,1.80
2018-10-05T09:36:30.895Z,1.93
2018-10-05T09:38:35.567Z,1.63
2018-10-05T09:40:40.033Z,2.52
2018-10-05T09:42:46.071Z,3.97
2018-10-05T09:44:51.359Z,6.72
2018-10-05T09:46:55.868Z,3.33
2018-10-05T09:49:00.839Z,4.53
2018-10-05T09:51:05.230Z,1.57
2018-10-05T09:53:09.978Z,1.60
2018-10-05T09:55:14.506Z,1.80
2018-10-05T09:57:19.014Z,1.33
2018-10-05T09:59:23.550Z,1.50
2018-10-05T10:01:33.106Z,1.32
2018-10-05T10:03:38.051Z,1.30
2018-10-05T10:05:42.515Z,1.30
2018-10-05T10:07:47.091Z,1.50
2018-10-05T10:09:51.563Z,1.03
2018-10-05T10:11:56.112Z,1.00
2018-10-05T10:14:00.667Z,0.97
2018-10-05T10:16:05.160Z,1.22
2018-10-05T10:18:09.646Z,0.70
2018-10-05T10:20:14.634Z,1.10
2018-10-05T10:22:19.066Z,0.83
2018-10-05T10:24:23.618Z,0.87
2018-10-05T10:26:28.863Z,1.20
2018-10-05T10:28:33.476Z,0.77
2018-10-05T10:30:37.938Z,0.80
2018-10-05T10:32:42.536Z,0.83
2018-10-05T10:34:47.021Z,0.98
2018-10-05T10:36:51.511Z,0.70
2018-10-05T10:38:56.088Z,0.90
2018-10-05T10:41:00.572Z,0.80
2018-10-05T10:43:05.095Z,0.88
2018-10-05T10:45:10.064Z,0.80
2018-10-05T10:47:14.635Z,0.80
2018-10-05T10:49:19.771Z,1.02
2018-10-05T10:51:24.298Z,1.10
2018-10-05T10:53:28.815Z,1.30
2018-10-05T10:55:33.273Z,1.20
2018-10-05T10:57:37.814Z,1.92
2018-10-05T10:59:42.318Z,0.90
2018-10-05T11:01:46.778Z,0.93
2018-10-05T11:03:51.395Z,0.70
2018-10-05T11:05:55.846Z,1.20
2018-10-05T11:08:00.350Z,0.80
2018-10-05T11:10:04.926Z,0.75
2018-10-05T11:12:09.404Z,0.70
2018-10-05T11:14:13.986Z,0.60
2018-10-05T11:16:18.543Z,0.77
2018-10-05T11:18:23.060Z,0.60
2018-10-05T11:20:28.392Z,1.00
2018-10-05T11:22:32.982Z,1.27
2018-10-05T11:24:37.439Z,0.68
2018-10-05T11:26:41.959Z,0.80
2018-10-05T11:28:46.539Z,0.53
2018-10-05T11:30:51.028Z,0.72
2018-10-05T11:32:55.500Z,0.60
2018-10-05T11:35:00.051Z,0.50
2018-10-05T11:37:04.982Z,0.64
2018-10-05T11:39:09.515Z,0.70
2018-10-05T11:41:13.979Z,0.50
2018-10-05T11:43:18.534Z,0.68
2018-10-05T11:45:22.989Z,0.90
2018-10-05T11:47:27.477Z,1.20
2018-10-05T11:49:31.930Z,0.65
2018-10-05T11:51:36.552Z,2.08
2018-10-05T11:53:41.143Z,0.80
2018-10-05T11:55:45.871Z,0.60
2018-10-05T11:57:50.371Z,0.80
2018-10-05T11:59:54.890Z,0.70
2018-10-05T12:01:59.422Z,0.73
2018-10-05T12:04:05.105Z,0.60
2018-10-05T12:06:09.539Z,0.55
2018-10-05T12:08:14.078Z,0.78
2018-10-05T12:10:18.615Z,0.70
2018-10-05T12:12:23.034Z,0.50
2018-10-05T12:14:27.903Z,0.60
2018-10-05T12:16:32.359Z,0.47
2018-10-05T12:18:37.218Z,0.70
2018-10-05T12:20:41.634Z,0.60
2018-10-05T12:22:46.114Z,0.47
2018-10-05T12:24:51.530Z,0.92
2018-10-05T12:26:56.347Z,0.55
2018-10-05T12:29:01.210Z,0.82
2018-10-05T12:31:05.732Z,0.53
2018-10-05T12:33:10.220Z,0.75
2018-10-05T12:35:14.924Z,0.72
2018-10-05T12:37:20.483Z,0.30
2018-10-05T12:39:27.135Z,0.50
2018-10-05T12:41:32.077Z,0.60
2018-10-05T12:43:36.934Z,0.50
2018-10-05T12:45:41.528Z,0.53
2018-10-05T12:47:46.033Z,0.50
2018-10-05T12:49:50.999Z,0.50
2018-10-05T12:51:55.838Z,0.50
2018-10-05T12:54:01.894Z,0.68
2018-10-05T12:56:07.004Z,0.70
2018-10-05T12:58:11.528Z,0.60
2018-10-05T13:00:16.075Z,0.50
2018-10-05T13:02:20.592Z,1.05
2018-10-05T13:04:25.120Z,0.60
2018-10-05T13:06:29.728Z,0.57
2018-10-05T13:08:34.230Z,1.05
2018-10-05T13:10:39.114Z,0.77
2018-10-05T13:12:44.193Z,0.70
2018-10-05T13:14:48.842Z,0.68
2018-10-05T13:16:54.147Z,0.50
2018-10-05T13:18:58.779Z,0.68
2018-10-05T13:21:03.295Z,0.70
2018-10-05T13:23:08.419Z,0.70
2018-10-05T13:25:13.688Z,0.50
2018-10-05T13:27:18.595Z,0.54
2018-10-05T13:29:23.125Z,0.75
2018-10-05T13:31:28.069Z,0.70
2018-10-05T13:33:33.928Z,0.57
2018-10-05T13:35:38.459Z,1.12
2018-10-05T13:37:43.078Z,0.85
2018-10-05T13:39:48.194Z,0.73
2018-10-05T13:41:53.686Z,0.90
2018-10-05T13:43:58.116Z,0.80
2018-10-05T13:46:03.535Z,0.90
2018-10-05T13:48:08.489Z,0.53
2018-10-05T13:50:14.174Z,0.60
2018-10-05T13:52:19.416Z,0.70
2018-10-05T13:54:23.919Z,1.67
2018-10-05T13:56:28.637Z,0.77
2018-10-05T13:58:33.836Z,0.54
2018-10-05T14:00:38.358Z,0.90
2018-10-05T14:02:42.876Z,0.70
2018-10-05T14:04:47.368Z,0.70
2018-10-05T14:06:52.631Z,0.65
2018-10-05T14:08:57.083Z,0.80
2018-10-05T14:11:01.658Z,0.50
2018-10-05T14:13:05.954Z,1.20
2018-10-05T14:15:10.586Z,0.83
2018-10-05T14:17:15.027Z,2.52
2018-10-05T14:19:19.564Z,0.80
2018-10-05T14:21:24.106Z,1.12
2018-10-05T14:23:28.827Z,0.87
2018-10-05T14:25:33.998Z,0.88
2018-10-05T14:27:38.479Z,0.66
2018-10-05T14:29:43.039Z,0.57
2018-10-05T14:31:51.364Z,1.00
2018-10-05T14:33:56.027Z,1.17
2018-10-05T14:36:00.561Z,1.07
2018-10-05T14:38:05.143Z,1.07
2018-10-05T14:40:09.778Z,0.63
2018-10-05T14:42:14.384Z,2.00
2018-10-05T14:44:18.931Z,1.50
2018-10-05T14:46:23.477Z,1.30
2018-10-05T14:48:28.007Z,1.00
2018-10-05T14:50:33.388Z,1.03
2018-10-05T14:52:37.900Z,0.80
2018-10-05T14:54:43.139Z,1.03
2018-10-05T14:56:47.630Z,1.00
2018-10-05T14:58:52.135Z,2.20
2018-10-05T15:00:57.902Z,0.80
2018-10-05T15:05:16.922Z,1.30
2018-10-05T15:07:22.234Z,1.45
2018-10-05T15:09:27.343Z,1.55
2018-10-05T15:11:31.854Z,1.50
2018-10-05T15:13:36.828Z,0.82
2018-10-05T15:15:41.374Z,1.67
2018-10-05T15:17:46.015Z,0.90
2018-10-05T15:19:50.730Z,1.40
2018-10-05T15:21:55.271Z,1.13
2018-10-05T15:23:59.995Z,1.70
2018-10-05T15:26:04.473Z,1.10
2018-10-05T15:28:08.907Z,1.10
2018-10-05T15:30:13.379Z,1.30
2018-10-05T15:32:18.535Z,1.00
2018-10-05T15:34:23.034Z,0.70
2018-10-05T15:36:28.023Z,1.00
2018-10-05T15:38:32.966Z,1.10
2018-10-05T15:40:38.552Z,0.73
2018-10-05T15:42:43.269Z,1.00
2018-10-05T15:44:48.986Z,1.00
2018-10-05T15:47:01.154Z,0.90
2018-10-05T15:49:05.862Z,1.10
2018-10-05T15:51:10.402Z,0.90
2018-10-05T15:53:14.792Z,0.82
2018-10-05T15:55:22.103Z,0.90
2018-10-05T15:57:38.581Z,0.87
2018-10-05T15:59:43.400Z,0.83
2018-10-05T16:01:48.605Z,1.12
2018-10-05T16:03:53.194Z,0.85
2018-10-05T16:05:58.421Z,0.95
2018-10-05T16:08:03.017Z,0.80
2018-10-05T16:10:08.607Z,0.80
2018-10-05T16:12:13.926Z,0.70
2018-10-05T16:14:18.621Z,0.50
2018-10-05T16:16:23.312Z,0.53
2018-10-05T16:18:27.865Z,0.60
2018-10-05T16:20:32.214Z,1.07
2018-10-05T16:22:36.658Z,0.87
2018-10-05T16:24:42.608Z,0.90
2018-10-05T16:26:47.110Z,1.13
2018-10-05T16:28:51.935Z,1.00
2018-10-05T16:30:56.527Z,0.80
2018-10-05T16:33:01.034Z,0.80
2018-10-05T16:35:07.170Z,0.82
2018-10-05T16:37:12.300Z,0.90
2018-10-05T16:39:16.940Z,0.90
2018-10-05T16:41:21.526Z,0.80
2018-10-05T16:43:26.872Z,0.62
2018-10-05T16:45:31.465Z,0.80
2018-10-05T16:47:35.923Z,0.80
2018-10-05T16:49:40.439Z,0.80
2018-10-05T16:51:44.986Z,0.90
2018-10-05T16:53:49.497Z,0.60
2018-10-05T16:55:53.994Z,0.60
2018-10-05T16:57:58.454Z,1.00
2018-10-05T17:00:02.961Z,1.80
2018-10-05T17:02:07.470Z,0.73
2018-10-05T17:04:12.010Z,0.63
2018-10-05T17:06:16.522Z,0.90
2018-10-05T17:08:21.068Z,0.67
2018-10-05T17:10:26.851Z,0.83
2018-10-05T17:12:31.323Z,0.90
2018-10-05T17:14:35.933Z,0.80
2018-10-05T17:16:40.713Z,0.78
2018-10-05T17:18:45.628Z,0.60
2018-10-05T17:20:50.149Z,1.00
2018-10-05T17:22:55.098Z,1.60
2018-10-05T17:24:59.594Z,1.10
2018-10-05T17:27:05.010Z,0.82
2018-10-05T17:29:10.348Z,1.17
2018-10-05T17:31:15.267Z,0.90
2018-10-05T17:33:19.868Z,2.55
2018-10-05T17:35:24.712Z,1.10
2018-10-05T17:37:29.911Z,1.40
2018-10-05T17:39:35.140Z,0.78
2018-10-05T17:41:40.149Z,1.30
2018-10-05T17:43:44.713Z,0.82
2018-10-05T17:45:50.017Z,0.70
2018-10-05T17:47:54.487Z,0.80
2018-10-05T17:49:59.011Z,1.10
2018-10-05T17:52:03.636Z,0.80
2018-10-05T17:54:08.073Z,0.93
2018-10-05T17:56:12.781Z,1.10
2018-10-05T17:58:17.244Z,1.20
2018-10-05T18:00:21.715Z,1.15
2018-10-05T18:02:28.834Z,1.30
2018-10-05T18:04:33.240Z,0.90
2018-10-05T18:06:37.787Z,1.10
2018-10-05T18:08:42.650Z,1.07
2018-10-05T18:10:47.211Z,0.83
2018-10-05T18:12:52.381Z,1.00
2018-10-05T18:14:57.419Z,1.15
2018-10-05T18:17:02.386Z,1.50
2018-10-05T18:19:06.967Z,1.23
2018-10-05T18:21:11.684Z,1.07
2018-10-05T18:23:16.364Z,0.80
2018-10-05T18:25:21.397Z,1.10
2018-10-05T18:27:26.436Z,1.60
2018-10-05T18:29:31.437Z,1.20
2018-10-05T18:31:37.078Z,1.20
2018-10-05T18:33:42.122Z,1.27
2018-10-05T18:35:46.822Z,1.55
2018-10-05T18:37:51.664Z,1.47
2018-10-05T18:39:56.982Z,1.32
2018-10-05T18:42:01.589Z,1.60
2018-10-05T18:44:07.063Z,1.20
2018-10-05T18:46:11.942Z,1.43
2018-10-05T18:48:16.598Z,1.20
2018-10-05T18:50:21.008Z,1.40
2018-10-05T18:52:25.517Z,1.40
2018-10-05T18:54:30.015Z,1.93
2018-10-05T18:56:51.975Z,1.40
2018-10-05T18:58:56.497Z,1.60
2018-10-05T19:01:00.945Z,2.03
2018-10-05T19:03:05.502Z,2.42
2018-10-05T19:05:10.884Z,1.32
2018-10-05T19:07:15.432Z,1.42
2018-10-05T19:09:19.960Z,1.90
2018-10-05T19:11:24.475Z,1.72
2018-10-05T19:13:29.036Z,2.50
2018-10-05T19:15:34.014Z,1.70
2018-10-05T19:17:38.490Z,1.60
2018-10-05T19:19:42.978Z,1.40
2018-10-05T19:21:47.483Z,1.57
2018-10-05T19:23:51.991Z,1.73
2018-10-05T19:25:56.774Z,3.53
2018-10-05T19:28:01.249Z,2.27
2018-10-05T19:30:05.999Z,2.03
2018-10-05T19:32:11.279Z,1.50
2018-10-05T19:34:17.430Z,1.60
2018-10-05T19:36:21.960Z,1.70
2018-10-05T19:38:26.577Z,1.87
2018-10-05T19:40:31.495Z,1.60
2018-10-05T19:42:36.121Z,2.43
2018-10-05T19:44:40.667Z,1.98
2018-10-05T19:46:45.323Z,2.50
2018-10-05T19:48:49.823Z,2.30
2018-10-05T19:50:54.288Z,2.17
2018-10-05T19:52:59.232Z,1.77
2018-10-05T19:55:03.688Z,2.10
2018-10-05T19:57:08.202Z,3.27
2018-10-05T19:59:12.709Z,1.97
2018-10-05T20:01:17.976Z,2.95
2018-10-05T20:03:22.500Z,2.50
2018-10-05T20:05:27.037Z,3.25
2018-10-05T20:07:31.783Z,2.37
2018-10-05T20:09:36.331Z,2.90
2018-10-05T20:11:40.856Z,2.62
2018-10-05T20:13:46.504Z,2.70
2018-10-05T20:15:52.983Z,2.90
2018-10-05T20:17:57.784Z,2.58
2018-10-05T20:20:02.447Z,2.90
2018-10-05T20:22:09.126Z,2.77
2018-10-05T20:24:13.793Z,2.50
2018-10-05T20:26:18.374Z,2.90
2018-10-05T20:28:23.147Z,2.62
2018-10-05T20:30:28.120Z,2.42
2018-10-05T20:32:32.646Z,2.10
2018-10-05T20:34:40.248Z,4.00
2018-10-05T20:36:46.509Z,2.33
2018-10-05T20:38:52.051Z,2.13
2018-10-05T20:40:56.862Z,3.20
2018-10-05T20:43:01.460Z,2.17
2018-10-05T20:45:12.653Z,2.67
2018-10-05T20:47:17.903Z,2.47
2018-10-05T20:49:22.434Z,2.80
2018-10-05T20:51:27.093Z,2.63
2018-10-05T20:53:32.633Z,2.87
2018-10-05T20:55:37.163Z,2.47
2018-10-05T20:57:42.547Z,2.63
2018-10-05T20:59:47.111Z,2.70
2018-10-05T21:01:52.666Z,2.40
2018-10-05T21:03:57.906Z,2.60
2018-10-05T21:06:02.412Z,2.67
2018-10-05T21:08:06.910Z,2.30
2018-10-05T21:10:12.974Z,2.70
2018-10-05T21:12:17.440Z,2.63
2018-10-05T21:14:21.980Z,2.70
2018-10-05T21:16:26.460Z,2.45
2018-10-05T21:18:31.067Z,2.93
2018-10-05T21:20:35.609Z,2.53
2018-10-05T21:22:40.102Z,2.63
2018-10-05T21:24:44.515Z,2.70
2018-10-05T21:26:49.043Z,2.55
2018-10-05T21:28:53.565Z,3.50
2018-10-05T21:30:58.067Z,3.27
2018-10-05T21:33:02.626Z,2.90
2018-10-05T21:35:07.237Z,2.42
2018-10-05T21:37:12.558Z,2.87
2018-10-05T21:39:17.090Z,3.00
2018-10-05T21:41:21.571Z,2.03
2018-10-05T21:43:25.990Z,2.40
2018-10-05T21:45:30.477Z,2.42
2018-10-05T21:47:34.906Z,2.40
2018-10-05T21:49:39.492Z,2.72
2018-10-05T21:51:43.939Z,2.25
2018-10-05T21:53:48.511Z,2.33
2018-10-05T21:55:53.795Z,2.60
2018-10-05T21:57:58.291Z,2.85
2018-10-05T22:00:03.311Z,2.47
2018-10-05T22:02:08.047Z,2.42
2018-10-05T22:04:13.846Z,2.50
2018-10-05T22:06:19.428Z,2.57
2018-10-05T22:08:23.901Z,3.05
2018-10-05T22:10:28.359Z,2.20
2018-10-05T22:12:33.644Z,2.13
2018-10-05T22:14:38.947Z,2.58
2018-10-05T22:16:43.398Z,2.47
2018-10-05T22:18:47.888Z,2.50
2018-10-05T22:20:52.412Z,2.27
2018-10-05T22:22:57.010Z,2.13
2018-10-05T22:25:01.475Z,2.15
2018-10-05T22:27:05.983Z,2.23
2018-10-05T22:29:10.466Z,2.20
2018-10-05T22:31:15.004Z,2.30
2018-10-05T22:33:19.527Z,2.40
2018-10-05T22:35:24.511Z,2.35
2018-10-05T22:37:29.088Z,2.42
2018-10-05T22:39:35.494Z,2.98
2018-10-05T22:41:42.227Z,2.58
2018-10-05T22:43:48.354Z,2.67
2018-10-05T22:45:55.564Z,2.57
2018-10-05T22:48:00.072Z,2.80
2018-10-05T22:50:13.240Z,2.43
2018-10-05T22:52:18.879Z,3.00
2018-10-05T22:54:23.379Z,2.55
2018-10-05T22:56:27.915Z,2.90
2018-10-05T22:58:32.427Z,2.50
2018-10-05T23:00:36.996Z,2.70
2018-10-05T23:02:41.467Z,2.57
2018-10-05T23:04:45.938Z,2.33
2018-10-05T23:06:50.448Z,3.20
2018-10-05T23:08:55.584Z,2.60
2018-10-05T23:11:04.087Z,3.00
2018-10-05T23:13:12.086Z,2.60
2018-10-05T23:15:16.503Z,2.58
2018-10-05T23:17:21.103Z,3.00
2018-10-05T23:19:26.103Z,2.90
2018-10-05T23:21:30.673Z,2.72
2018-10-05T23:23:35.819Z,2.72
2018-10-05T23:25:40.308Z,2.87
2018-10-05T23:27:44.795Z,2.70
2018-10-05T23:29:49.304Z,2.70
2018-10-05T23:31:53.858Z,2.75
2018-10-05T23:33:58.363Z,2.80
2018-10-05T23:36:02.888Z,2.92
2018-10-05T23:38:08.230Z,3.17
2018-10-05T23:40:12.691Z,3.25
2018-10-05T23:42:17.279Z,3.13
2018-10-05T23:44:21.780Z,2.80
2018-10-05T23:46:26.423Z,2.87
2018-10-05T23:48:31.090Z,3.08
2018-10-05T23:50:35.730Z,2.97
2018-10-05T23:52:44.123Z,3.00
2018-10-05T23:54:48.593Z,3.05
2018-10-05T23:56:53.061Z,3.30
2018-10-05T23:58:57.547Z,2.90
